Time;durP1;ratioP1;P1;durP2;ratioP2;P2;SDS_P1;SDS_P2;PMS_P1;PMS_P2;Temp;Humidity;BMP_temperature;BMP_pressure;BME280_temperature;BME280_humidity;BME280_pressure;Samples;Min_cycle;Max_cycle;Signal;HPM_P1;HPM_P2
2022/11/10 00:00:57;;;;;;;2.73;2.53;;;;;;;9.82;95.76;99816.09;5109680;28;20221;-62
2022/11/10 00:03:27;;;;;;;2.97;2.03;;;;;;;9.80;95.57;99817.88;5109815;28;20197;-62
2022/11/10 00:05:54;;;;;;;6.33;3.00;;;;;;;9.80;95.44;99817.88;5109535;28;20253;-62
2022/11/10 00:08:21;;;;;;;3.17;2.00;;;;;;;9.80;95.62;99812.78;5109481;28;20293;-62
2022/11/10 00:11:03;;;;;;;2.53;1.80;;;;;;;9.83;95.19;99821.13;5109603;28;20256;-62
2022/11/10 00:13:34;;;;;;;3.13;2.00;;;;;;;9.81;94.78;99819.56;5109725;28;20261;-60
2022/11/10 00:18:46;;;;;;;2.87;2.37;;;;;;;9.80;95.02;99815.34;5109802;28;20582;-62
2022/11/10 00:21:14;;;;;;;4.63;2.90;;;;;;;9.77;94.74;99813.78;5109784;28;20258;-58
2022/11/10 00:23:41;;;;;;;2.70;1.77;;;;;;;9.76;94.71;99812.16;5109541;28;20194;-62
2022/11/10 00:26:13;;;;;;;2.90;2.33;;;;;;;9.68;94.83;99810.00;5109947;28;20193;-58
2022/11/10 00:28:42;;;;;;;3.83;1.80;;;;;;;9.61;94.45;99815.56;5109243;28;20225;-57
2022/11/10 00:31:09;;;;;;;3.83;2.93;;;;;;;9.47;94.98;99816.34;5109574;28;20197;-58
2022/11/10 00:33:36;;;;;;;3.03;1.97;;;;;;;9.44;95.55;99811.41;5109454;28;20197;-58
2022/11/10 00:36:04;;;;;;;5.80;1.97;;;;;;;9.40;95.99;99809.94;5112090;28;20213;-62
2022/11/10 00:38:31;;;;;;;4.70;3.33;;;;;;;9.36;96.27;99805.91;5112996;28;20254;-58
2022/11/10 00:40:58;;;;;;;3.93;1.97;;;;;;;9.29;96.55;99798.59;5113040;28;20225;-58
2022/11/10 00:43:25;;;;;;;6.17;3.33;;;;;;;9.33;96.52;99803.53;5112956;28;20198;-61
2022/11/10 00:45:54;;;;;;;4.47;2.07;;;;;;;9.28;96.74;99804.63;5113012;28;20224;-61
2022/11/10 00:48:20;;;;;;;4.43;2.77;;;;;;;9.26;96.56;99803.06;5112754;27;20415;-58
2022/11/10 00:50:47;;;;;;;1.70;1.27;;;;;;;9.30;96.90;99799.41;5112566;27;20217;-62
2022/11/10 00:53:14;;;;;;;4.30;2.30;;;;;;;9.35;96.79;99806.81;5112632;27;20741;-62
2022/11/10 00:55:41;;;;;;;6.03;2.43;;;;;;;9.37;96.86;99799.91;5112647;28;20220;-58
2022/11/10 00:58:08;;;;;;;1.87;1.77;;;;;;;9.40;96.90;99804.84;5113056;28;20718;-57
2022/11/10 01:00:35;;;;;;;2.67;1.50;;;;;;;9.23;96.75;99793.84;5112763;28;20224;-62
2022/11/10 01:03:03;;;;;;;3.17;2.07;;;;;;;9.14;97.63;99791.78;5112473;28;20194;-58
2022/11/10 01:05:31;;;;;;;2.33;1.90;;;;;;;9.20;97.97;99793.19;5112795;28;20683;-62
2022/11/10 01:07:59;;;;;;;1.80;1.70;;;;;;;9.22;97.52;99792.19;5112475;28;20197;-58
2022/11/10 01:10:26;;;;;;;3.50;3.13;;;;;;;9.22;97.29;99792.19;5112780;28;20267;-58
2022/11/10 01:12:53;;;;;;;2.33;1.93;;;;;;;9.27;97.31;99795.31;5112337;28;20247;-62
2022/11/10 01:15:20;;;;;;;4.03;3.27;;;;;;;9.29;96.63;99783.28;5112386;28;20221;-62
2022/11/10 01:17:47;;;;;;;2.30;1.73;;;;;;;9.13;97.04;99787.59;5112561;28;20245;-62
2022/11/10 01:20:16;;;;;;;3.03;2.10;;;;;;;9.13;96.83;99792.69;5112563;27;20228;-58
2022/11/10 01:22:43;;;;;;;2.03;1.93;;;;;;;9.02;97.17;99795.03;5112341;28;20291;-58
2022/11/10 01:25:10;;;;;;;3.13;2.27;;;;;;;8.98;97.67;99791.78;5112256;28;20776;-57
2022/11/10 01:27:37;;;;;;;2.97;2.30;;;;;;;9.01;97.96;99793.38;5112208;27;20224;-58
2022/11/10 01:30:05;;;;;;;1.00;1.00;;;;;;;9.05;97.74;99789.75;5111915;28;20456;-58
2022/11/10 01:32:32;;;;;;;2.57;2.37;;;;;;;9.07;97.57;99788.78;5111846;28;20194;-62
2022/11/10 01:34:58;;;;;;;1.97;1.67;;;;;;;9.07;97.20;99790.47;5111984;28;20217;-62
2022/11/10 01:37:27;;;;;;;2.23;2.00;;;;;;;8.89;97.30;99788.94;5111947;28;20198;-58
2022/11/10 01:39:53;;;;;;;3.03;2.03;;;;;;;8.77;97.22;99781.03;5112269;28;20725;-62
2022/11/10 01:42:25;;;;;;;2.93;1.90;;;;;;;8.68;97.56;99786.63;5111967;28;20204;-62
2022/11/10 01:45:30;;;;;;;1.93;1.67;;;;;;;8.81;97.48;99787.63;5111908;28;20697;-58
2022/11/10 01:48:01;;;;;;;2.73;1.83;;;;;;;8.81;96.91;99791.88;5111941;28;20579;-62
2022/11/10 01:50:34;;;;;;;1.23;1.13;;;;;;;8.80;97.16;99791.06;5111697;28;20225;-58
2022/11/10 01:53:05;;;;;;;1.87;1.77;;;;;;;8.82;96.68;99789.25;5111431;27;20197;-58
2022/11/10 01:55:34;;;;;;;1.80;1.70;;;;;;;8.80;97.00;99791.06;5111610;28;20490;-62
2022/11/10 01:58:01;;;;;;;4.80;2.90;;;;;;;8.79;97.08;99784.34;5111444;28;20309;-61
2022/11/10 02:00:28;;;;;;;2.80;2.17;;;;;;;8.81;97.08;99787.63;5111937;28;20705;-58
2022/11/10 02:03:01;;;;;;;1.80;1.10;;;;;;;8.83;97.04;99790.91;5111597;28;20201;-61
2022/11/10 02:05:28;;;;;;;2.20;1.20;;;;;;;8.82;97.51;99788.44;5111545;28;20713;-61
2022/11/10 02:07:56;;;;;;;3.07;2.47;;;;;;;8.77;97.58;99791.22;5111048;28;20197;-61
2022/11/10 02:10:24;;;;;;;2.17;1.97;;;;;;;8.74;97.79;99788.84;5111114;28;20229;-61
2022/11/10 02:12:52;;;;;;;4.83;2.70;;;;;;;8.74;97.73;99795.69;5111295;27;20234;-62
2022/11/10 02:15:19;;;;;;;2.50;2.27;;;;;;;8.77;97.87;99786.13;5111011;28;20228;-59
2022/11/10 02:17:47;;;;;;;4.30;1.97;;;;;;;8.75;98.00;99793.03;5110948;28;20201;-57
2022/11/10 02:20:16;;;;;;;3.17;2.20;;;;;;;8.71;98.23;99791.56;5111199;28;20225;-58
2022/11/10 02:22:45;;;;;;;2.77;2.07;;;;;;;8.64;98.39;99794.50;5110894;28;20197;-57
2022/11/10 02:25:16;;;;;;;4.13;2.43;;;;;;;8.62;98.50;99794.59;5111041;28;20701;-62
2022/11/10 02:27:43;;;;;;;2.47;2.17;;;;;;;8.63;98.92;99798.78;5110972;28;20194;-61
2022/11/10 02:30:11;;;;;;;3.70;2.20;;;;;;;8.65;98.81;99802.09;5110455;28;20665;-62
2022/11/10 02:32:37;;;;;;;3.10;2.30;;;;;;;8.62;98.95;99799.69;5110599;28;20193;-62
2022/11/10 02:35:05;;;;;;;3.20;2.43;;;;;;;8.55;98.89;99795.81;5110621;28;20713;-57
2022/11/10 02:37:32;;;;;;;4.33;2.40;;;;;;;8.52;98.92;99801.91;5110503;28;20697;-62
2022/11/10 02:40:00;;;;;;;2.43;2.23;;;;;;;8.54;98.95;99805.19;5110594;28;20213;-58
2022/11/10 02:42:27;;;;;;;4.43;2.50;;;;;;;8.53;98.79;99805.28;5110569;28;20197;-61
2022/11/10 02:44:54;;;;;;;2.37;1.80;;;;;;;8.49;98.25;99807.16;5110488;28;20213;-62
2022/11/10 02:47:21;;;;;;;3.33;1.90;;;;;;;8.47;98.17;99803.06;5110620;28;20197;-61
2022/11/10 02:49:47;;;;;;;3.93;2.50;;;;;;;8.47;97.87;99814.06;5110617;28;20306;-62
2022/11/10 02:52:14;;;;;;;6.23;2.20;;;;;;;8.42;97.87;99815.22;5110248;28;20677;-61
2022/11/10 02:54:41;;;;;;;4.23;3.27;;;;;;;8.42;97.43;99807.56;5110859;28;20584;-62
2022/11/10 02:57:09;;;;;;;2.87;1.57;;;;;;;8.39;97.47;99811.91;5109675;28;20682;-57
2022/11/10 02:59:36;;;;;;;2.43;1.70;;;;;;;8.37;97.32;99808.56;5110501;28;20286;-58
2022/11/10 03:02:03;;;;;;;2.20;2.00;;;;;;;8.33;97.63;99808.84;5110498;28;20269;-61
2022/11/10 03:04:29;;;;;;;2.17;1.97;;;;;;;8.29;98.07;99810.72;5110066;28;20225;-58
2022/11/10 03:06:56;;;;;;;1.97;1.83;;;;;;;8.27;98.57;99812.50;5110228;28;20204;-58
2022/11/10 03:09:23;;;;;;;3.03;2.33;;;;;;;8.22;98.58;99814.47;5110145;28;20630;-61
2022/11/10 03:11:50;;;;;;;2.40;2.23;;;;;;;8.23;98.99;99810.19;5110303;28;20213;-62
2022/11/10 03:14:18;;;;;;;2.63;1.70;;;;;;;8.20;99.21;99811.16;5109998;28;20213;-62
2022/11/10 03:16:44;;;;;;;2.33;2.03;;;;;;;8.19;99.54;99808.72;5110042;28;20669;-58
2022/11/10 03:19:11;;;;;;;2.97;2.03;;;;;;;8.21;99.64;99807.72;5110235;28;20273;-58
2022/11/10 03:21:38;;;;;;;7.03;2.73;;;;;;;8.21;99.52;99810.28;5110120;28;20193;-61
2022/11/10 03:24:05;;;;;;;2.57;2.27;;;;;;;8.20;99.29;99808.63;5109912;28;20227;-57
2022/11/10 03:26:32;;;;;;;3.77;2.80;;;;;;;8.21;99.19;99805.19;5109970;28;20209;-58
2022/11/10 03:28:59;;;;;;;6.07;1.80;;;;;;;8.21;99.21;99805.19;5110085;28;20221;-61
2022/11/10 03:31:27;;;;;;;3.20;2.50;;;;;;;8.18;99.00;99805.34;5109799;28;20225;-61
2022/11/10 03:33:54;;;;;;;2.47;2.00;;;;;;;8.15;99.09;99803.78;5109996;28;20197;-61
2022/11/10 03:36:20;;;;;;;2.47;2.03;;;;;;;8.12;99.22;99800.56;5109868;28;20194;-61
2022/11/10 03:38:47;;;;;;;1.27;1.20;;;;;;;8.10;99.44;99807.44;5109793;28;20201;-61
2022/11/10 03:41:14;;;;;;;4.30;2.87;;;;;;;8.09;99.20;99803.28;5109916;28;20212;-61
2022/11/10 03:43:41;;;;;;;3.57;3.10;;;;;;;8.05;99.28;99810.22;5109722;28;20241;-61
2022/11/10 03:46:08;;;;;;;3.63;2.33;;;;;;;8.03;99.52;99809.50;5109900;28;20193;-57
2022/11/10 03:48:36;;;;;;;3.93;2.57;;;;;;;8.02;99.52;99812.09;5109632;28;20204;-61
2022/11/10 03:51:03;;;;;;;1.90;1.60;;;;;;;8.02;99.91;99812.09;5109696;28;20729;-61
2022/11/10 03:53:30;;;;;;;2.50;2.17;;;;;;;7.94;100.00;99815.88;5109551;28;20193;-61
2022/11/10 03:56:00;;;;;;;3.07;2.47;;;;;;;7.85;100.00;99821.41;5109747;28;20221;-60
2022/11/10 03:58:26;;;;;;;3.33;2.40;;;;;;;7.89;100.00;99822.91;5109493;28;20204;-57
2022/11/10 04:00:53;;;;;;;2.90;2.37;;;;;;;7.92;100.00;99827.03;5109482;28;20224;-61
2022/11/10 04:03:20;;;;;;;2.60;1.97;;;;;;;7.92;100.00;99825.28;5109702;28;20201;-58
2022/11/10 04:15:40;;;;;;;2.90;2.30;;;;;;;7.81;100.00;99830.09;5113524;28;20734;-61
2022/11/10 04:16:48;;;;;;;1.70;1.60;;;;;;;7.76;100.00;99837.13;5113370;28;20193;-61
2022/11/10 04:19:15;;;;;;;3.43;2.17;;;;;;;7.71;100.00;99834.81;5113410;27;20213;-57
2022/11/10 04:21:43;;;;;;;2.07;1.87;;;;;;;7.72;100.00;99835.63;5113209;28;20684;-57
2022/11/10 04:24:10;;;;;;;3.90;2.70;;;;;;;7.74;100.00;99830.44;5113445;28;20266;-61
2022/11/10 04:26:37;;;;;;;2.57;2.17;;;;;;;7.75;100.00;99840.56;5113275;28;20201;-57
2022/11/10 04:29:07;;;;;;;2.50;2.30;;;;;;;7.73;100.00;99842.34;5113158;28;20715;-57
2022/11/10 04:31:36;;;;;;;1.97;1.77;;;;;;;7.70;100.00;99832.31;5112875;28;20239;-58
2022/11/10 04:34:04;;;;;;;2.43;2.23;;;;;;;7.71;100.00;99844.16;5113123;28;20213;-61
2022/11/10 04:36:32;;;;;;;2.20;1.30;;;;;;;7.65;100.00;99844.44;5113264;28;20783;-61
2022/11/10 04:39:01;;;;;;;2.80;2.37;;;;;;;7.63;100.00;99841.97;5112922;28;20740;-61
2022/11/10 04:41:30;;;;;;;1.87;1.60;;;;;;;7.61;100.00;99842.94;5112984;28;20212;-57
2022/11/10 04:43:57;;;;;;;1.97;1.83;;;;;;;7.61;100.00;99853.94;5112911;28;20221;-61
2022/11/10 04:46:26;;;;;;;1.70;1.60;;;;;;;7.59;100.00;99849.81;5112980;28;20197;-57
2022/11/10 04:48:54;;;;;;;2.43;2.10;;;;;;;7.57;100.00;99842.28;5112775;28;20227;-57
2022/11/10 04:51:23;;;;;;;3.57;2.50;;;;;;;7.55;100.00;99848.34;5112683;28;20225;-58
2022/11/10 04:53:50;;;;;;;1.37;1.23;;;;;;;7.52;100.00;99853.56;5112565;28;20665;-61
2022/11/10 04:56:19;;;;;;;3.83;1.70;;;;;;;7.52;100.00;99851.03;5112555;28;20196;-57
2022/11/10 04:58:47;;;;;;;2.13;2.00;;;;;;;7.48;100.00;99852.91;5112464;28;20224;-61
2022/11/10 05:01:17;;;;;;;3.27;2.67;;;;;;;7.47;100.00;99854.59;5112461;28;20213;-61
2022/11/10 05:03:44;;;;;;;1.97;1.70;;;;;;;7.47;100.00;99854.59;5112617;28;20196;-61
2022/11/10 05:06:10;;;;;;;3.50;1.27;;;;;;;7.46;100.00;99857.22;5112825;28;20677;-61
2022/11/10 05:08:37;;;;;;;4.67;2.87;;;;;;;7.48;100.00;99853.72;5112615;28;20189;-58
2022/11/10 05:11:04;;;;;;;1.77;1.67;;;;;;;7.47;100.00;99856.31;5112532;28;20228;-58
2022/11/10 05:13:33;;;;;;;1.73;1.63;;;;;;;7.41;100.00;99857.44;5112024;28;20204;-58
2022/11/10 05:16:00;;;;;;;4.23;2.80;;;;;;;7.45;100.00;99858.13;5112215;28;20244;-58
2022/11/10 05:18:27;;;;;;;1.73;1.63;;;;;;;7.47;100.00;99861.41;5112074;28;20209;-57
2022/11/10 05:20:54;;;;;;;2.37;1.80;;;;;;;7.45;100.00;99864.03;5111376;28;20708;-61
2022/11/10 05:23:40;;;;;;;2.63;2.43;;;;;;;7.39;100.00;99859.25;5111881;28;20204;-57
2022/11/10 05:26:09;;;;;;;2.43;2.23;;;;;;;7.43;100.00;99865.81;5112418;28;20254;-57
2022/11/10 05:28:37;;;;;;;1.83;1.60;;;;;;;7.51;100.00;99872.28;5111996;28;20232;-61
2022/11/10 05:31:04;;;;;;;1.93;1.77;;;;;;;7.53;100.00;99880.66;5111744;27;20232;-58
2022/11/10 05:33:32;;;;;;;1.47;1.37;;;;;;;7.43;100.00;99876.00;5111903;28;20202;-61
2022/11/10 05:35:59;;;;;;;2.03;1.93;;;;;;;7.48;100.00;99873.25;5111820;28;20221;-58
2022/11/10 05:38:26;;;;;;;1.80;1.70;;;;;;;7.53;100.00;99884.03;5111805;28;20205;-61
2022/11/10 05:40:53;;;;;;;2.30;2.03;;;;;;;7.59;100.00;99891.41;5111718;27;20221;-61
2022/11/10 05:43:20;;;;;;;2.67;2.13;;;;;;;7.64;100.00;99893.69;5111492;28;20189;-61
2022/11/10 05:45:48;;;;;;;3.97;1.63;;;;;;;7.69;100.00;99891.78;5111730;28;20766;-61
2022/11/10 05:48:15;;;;;;;1.97;1.27;;;;;;;7.63;99.89;99895.44;5111528;28;20677;-57
2022/11/10 05:50:43;;;;;;;2.10;1.93;;;;;;;7.64;100.00;99902.16;5111611;28;20232;-57
2022/11/10 05:53:10;;;;;;;3.17;2.87;;;;;;;7.72;100.00;99902.63;5111173;28;20777;-58
2022/11/10 05:55:36;;;;;;;2.60;2.40;;;;;;;7.79;100.00;99900.59;5111862;27;20221;-57
2022/11/10 05:58:04;;;;;;;2.00;1.63;;;;;;;7.89;100.00;99906.09;5111376;28;20265;-58
2022/11/10 06:00:32;;;;;;;2.20;2.00;;;;;;;8.00;100.00;99905.56;5111616;28;20225;-58
2022/11/10 06:03:03;;;;;;;2.43;2.23;;;;;;;8.09;99.61;99910.22;5111197;28;20205;-61
2022/11/10 06:05:31;;;;;;;1.97;1.57;;;;;;;8.14;99.52;99910.81;5111295;28;20232;-58
2022/11/10 06:07:58;;;;;;;4.33;2.47;;;;;;;8.22;100.00;99916.34;5111062;28;20626;-61
2022/11/10 06:10:25;;;;;;;3.00;1.97;;;;;;;8.35;99.69;99922.50;5111233;28;20293;-61
2022/11/10 06:12:53;;;;;;;4.07;3.50;;;;;;;8.50;99.93;99915.03;5111086;28;20213;-58
2022/11/10 06:15:19;;;;;;;2.33;2.10;;;;;;;8.59;100.00;99915.38;5111089;28;20274;-58
2022/11/10 06:17:47;;;;;;;3.97;2.13;;;;;;;8.72;100.00;99920.66;5111128;28;20733;-57
2022/11/10 06:20:16;;;;;;;5.40;3.57;;;;;;;8.86;100.00;99924.25;5110885;28;20217;-61
2022/11/10 06:22:43;;;;;;;4.40;2.97;;;;;;;9.06;100.00;99929.13;5110902;28;20284;-62
2022/11/10 06:25:10;;;;;;;6.47;2.57;;;;;;;9.23;100.00;99936.72;5111106;28;20633;-62
2022/11/10 06:27:37;;;;;;;5.30;3.27;;;;;;;9.36;100.00;99929.22;5110773;28;20201;-62
2022/11/10 06:30:05;;;;;;;2.53;2.23;;;;;;;9.53;100.00;99938.53;5110642;28;20245;-58
2022/11/10 06:32:34;;;;;;;3.77;2.77;;;;;;;9.82;100.00;99941.22;5110710;28;20219;-62
2022/11/10 06:35:00;;;;;;;3.20;2.20;;;;;;;10.17;100.00;99945.16;5110811;28;20213;-62
2022/11/10 06:37:28;;;;;;;2.83;2.53;;;;;;;10.59;100.00;99951.31;5110897;28;20213;-62
2022/11/10 06:39:55;;;;;;;4.50;2.30;;;;;;;11.02;100.00;99946.19;5110448;28;20227;-62
2022/11/10 06:42:22;;;;;;;3.37;1.77;;;;;;;11.48;99.06;99943.38;5110510;28;20201;-62
2022/11/10 06:44:49;;;;;;;3.77;2.60;;;;;;;11.93;96.31;99951.69;5110392;28;20223;-58
2022/11/10 06:47:16;;;;;;;2.87;2.60;;;;;;;12.34;93.36;99950.75;5110417;28;20369;-58
2022/11/10 06:49:42;;;;;;;8.70;2.93;;;;;;;12.79;91.25;99946.03;5110325;28;20224;-58
2022/11/10 06:52:09;;;;;;;7.67;3.17;;;;;;;13.23;89.66;99944.72;5110296;28;20221;-58
2022/11/10 06:54:37;;;;;;;6.20;3.13;;;;;;;13.57;86.19;99952.69;5110085;28;20217;-58
2022/11/10 06:57:04;;;;;;;6.97;3.47;;;;;;;13.95;84.50;99956.81;5110448;28;20193;-62
2022/11/10 06:59:31;;;;;;;5.33;3.20;;;;;;;14.33;82.96;99966.88;5110281;28;20771;-62
2022/11/10 07:01:58;;;;;;;5.07;3.10;;;;;;;14.66;80.94;99967.91;5110107;28;20195;-62
2022/11/10 07:04:24;;;;;;;4.90;3.27;;;;;;;14.90;79.48;99970.41;5110100;28;20738;-62
2022/11/10 07:06:51;;;;;;;5.97;2.90;;;;;;;14.96;78.75;99969.94;5110242;28;20201;-58
2022/11/10 07:09:18;;;;;;;6.23;4.37;;;;;;;15.19;77.96;99969.94;5110163;28;20710;-63
2022/11/10 07:11:46;;;;;;;4.87;3.30;;;;;;;15.43;76.36;99972.34;5110110;28;20229;-59
2022/11/10 07:14:13;;;;;;;7.10;4.10;;;;;;;15.66;75.59;99971.34;5110564;28;20229;-58
2022/11/10 07:16:40;;;;;;;5.73;3.33;;;;;;;15.91;74.24;99970.25;5110367;28;20281;-62
2022/11/10 07:19:07;;;;;;;5.87;4.10;;;;;;;16.17;73.30;99973.28;5110056;28;20219;-63
2022/11/10 07:21:33;;;;;;;5.93;2.97;;;;;;;16.31;71.27;99964.41;5109963;28;20200;-58
2022/11/10 07:24:00;;;;;;;7.90;4.00;;;;;;;16.56;70.97;99977.91;5110025;28;20221;-58
2022/11/10 07:26:27;;;;;;;7.73;3.60;;;;;;;16.61;69.75;99968.81;5110141;28;20656;-58
2022/11/10 07:28:55;;;;;;;8.60;4.53;;;;;;;16.37;69.54;99974.22;5109955;28;20635;-59
2022/11/10 07:31:22;;;;;;;9.47;5.07;;;;;;;16.48;68.98;99976.75;5109773;28;20224;-58
2022/11/10 07:33:48;;;;;;;9.00;3.97;;;;;;;16.69;69.20;99979.31;5110026;28;20197;-59
2022/11/10 07:36:15;;;;;;;9.20;4.23;;;;;;;16.71;68.74;99979.19;5110112;28;20590;-59
2022/11/10 07:38:42;;;;;;;8.53;4.43;;;;;;;16.83;68.74;99978.19;5109746;28;20317;-62
2022/11/10 07:41:09;;;;;;;7.10;4.10;;;;;;;16.79;68.41;99978.59;5110220;28;20302;-63
2022/11/10 07:43:36;;;;;;;9.13;4.97;;;;;;;16.91;68.29;99975.78;5110534;28;20201;-62
2022/11/10 07:46:04;;;;;;;7.53;3.97;;;;;;;17.01;67.39;99977.59;5114426;28;20594;-62
2022/11/10 07:48:30;;;;;;;10.20;4.43;;;;;;;17.28;66.34;99980.41;5113902;28;20280;-58
2022/11/10 07:50:57;;;;;;;10.17;4.30;;;;;;;17.33;66.70;99983.41;5114015;28;20233;-59
2022/11/10 07:53:24;;;;;;;10.47;4.30;;;;;;;17.59;65.57;99982.91;5113708;28;20203;-59
2022/11/10 07:55:51;;;;;;;8.03;4.97;;;;;;;17.74;64.59;99975.56;5114196;28;20785;-62
2022/11/10 07:58:18;;;;;;;8.70;5.07;;;;;;;18.02;64.56;99981.75;5113530;28;20202;-59
2022/11/10 08:00:46;;;;;;;8.03;4.67;;;;;;;18.14;63.48;99983.22;5113746;28;20222;-62
2022/11/10 08:03:16;;;;;;;11.30;5.30;;;;;;;18.12;62.22;99985.13;5113965;28;20195;-62
2022/11/10 08:05:43;;;;;;;8.90;4.27;;;;;;;18.20;61.56;99982.69;5113795;28;20607;-59
2022/11/10 08:08:10;;;;;;;8.57;4.90;;;;;;;18.20;61.33;99982.69;5113658;28;20615;-62
2022/11/10 08:10:37;;;;;;;7.67;4.03;;;;;;;18.40;60.92;99985.25;5113527;28;20722;-59
2022/11/10 08:13:07;;;;;;;8.63;4.30;;;;;;;18.42;60.45;99983.34;5113807;28;20194;-62
2022/11/10 08:15:35;;;;;;;11.47;5.67;;;;;;;18.63;59.23;99989.16;5113462;28;20220;-59
2022/11/10 08:18:03;;;;;;;10.00;5.07;;;;;;;18.78;57.84;99987.75;5113380;28;20202;-63
2022/11/10 08:20:31;;;;;;;6.80;5.00;;;;;;;18.65;58.74;99987.25;5113422;28;20430;-62
2022/11/10 08:22:59;;;;;;;15.80;5.47;;;;;;;18.92;60.01;99975.31;5113375;28;20305;-63
2022/11/10 08:25:27;;;;;;;11.27;4.47;;;;;;;19.41;57.52;99981.09;5113317;28;20212;-58
2022/11/10 08:27:59;;;;;;;7.23;5.10;;;;;;;19.84;56.03;99989.97;5113263;28;20199;-63
2022/11/10 08:30:26;;;;;;;7.43;4.37;;;;;;;19.86;55.38;99982.84;5113650;28;20245;-63
2022/11/10 08:32:55;;;;;;;9.37;4.50;;;;;;;19.93;54.48;99989.09;5113174;27;20631;-62
2022/11/10 08:35:24;;;;;;;7.97;4.70;;;;;;;20.06;54.39;99994.69;5113619;28;20215;-62
2022/11/10 08:37:52;;;;;;;8.07;5.07;;;;;;;19.94;53.93;99988.09;5112948;28;20205;-63
2022/11/10 08:40:20;;;;;;;8.90;4.63;;;;;;;19.66;55.92;99984.75;5113389;28;20649;-59
2022/11/10 08:42:47;;;;;;;10.63;4.87;;;;;;;20.01;54.81;99991.75;5112930;28;20197;-59
2022/11/10 08:45:14;;;;;;;8.73;4.60;;;;;;;20.43;53.84;99991.09;5113116;28;20285;-63
2022/11/10 08:47:43;;;;;;;7.50;4.57;;;;;;;20.99;51.46;99996.78;5112967;28;20196;-59
2022/11/10 08:50:10;;;;;;;7.93;4.80;;;;;;;21.27;51.40;99994.78;5113067;28;20226;-63
2022/11/10 08:52:37;;;;;;;9.30;4.57;;;;;;;21.35;50.75;100001.78;5112932;28;20657;-63
2022/11/10 08:55:06;;;;;;;8.57;5.07;;;;;;;21.51;49.35;100001.06;5111910;28;20575;-63
2022/11/10 08:57:33;;;;;;;9.00;5.33;;;;;;;20.76;49.67;100001.69;5113006;28;20199;-59
2022/11/10 08:59:59;;;;;;;9.93;5.13;;;;;;;20.97;50.19;100003.91;5112968;28;20230;-62
2022/11/10 09:02:26;;;;;;;6.93;4.50;;;;;;;21.01;50.23;100002.66;5112642;28;20357;-63
2022/11/10 09:04:53;;;;;;;7.33;4.90;;;;;;;20.85;49.91;100000.78;5112576;28;20227;-63
2022/11/10 09:07:20;;;;;;;6.43;4.27;;;;;;;20.97;51.25;100004.75;5112549;28;20291;-59
2022/11/10 09:09:46;;;;;;;8.80;5.30;;;;;;;21.29;50.79;99998.03;5112660;28;20274;-63
2022/11/10 09:12:15;;;;;;;7.73;4.60;;;;;;;21.43;48.57;100000.06;5112622;28;20686;-59
2022/11/10 09:14:42;;;;;;;9.73;5.20;;;;;;;21.54;47.99;100003.34;5112351;28;20227;-59
2022/11/10 09:17:08;;;;;;;7.17;4.40;;;;;;;21.45;49.70;99998.13;5112503;28;20202;-63
2022/11/10 09:19:35;;;;;;;7.83;4.07;;;;;;;21.74;49.25;99996.88;5112385;28;20312;-62
2022/11/10 09:22:02;;;;;;;7.50;4.63;;;;;;;21.93;49.06;99998.34;5112086;28;20259;-63
2022/11/10 09:24:29;;;;;;;8.87;4.70;;;;;;;22.52;46.84;100003.41;5112098;28;20615;-59
2022/11/10 09:26:56;;;;;;;8.57;4.40;;;;;;;22.35;46.63;100000.00;5112072;28;20205;-63
2022/11/10 09:29:24;;;;;;;8.27;5.00;;;;;;;21.46;48.06;99994.53;5112441;27;20608;-59
2022/11/10 09:31:51;;;;;;;7.90;4.60;;;;;;;21.64;47.52;100001.41;5111958;28;20227;-62
2022/11/10 09:34:18;;;;;;;7.67;4.17;;;;;;;22.26;47.08;99994.00;5111865;28;20216;-59
2022/11/10 09:36:45;;;;;;;6.43;3.90;;;;;;;22.59;46.32;99997.34;5111964;27;20692;-59
2022/11/10 09:39:12;;;;;;;8.43;5.00;;;;;;;22.56;46.20;99994.28;5111914;28;20214;-59
2022/11/10 09:41:41;;;;;;;7.87;4.47;;;;;;;22.53;46.33;99998.00;5111877;28;20202;-59
2022/11/10 09:44:14;;;;;;;8.13;4.40;;;;;;;22.82;45.71;99994.84;5111593;28;20224;-59
2022/11/10 09:46:47;;;;;;;8.07;5.00;;;;;;;23.30;45.12;99991.41;5111843;28;20739;-63
2022/11/10 09:49:25;;;;;;;8.55;4.80;;;;;;;23.59;43.30;99988.16;5111640;28;20228;-63
2022/11/10 09:51:53;;;;;;;7.90;5.05;;;;;;;23.46;44.02;99991.34;5111806;28;20644;-63
2022/11/10 09:54:34;;;;;;;7.00;4.03;;;;;;;23.62;43.04;99987.81;5111517;28;20733;-59
2022/11/10 09:57:04;;;;;;;6.40;4.10;;;;;;;23.62;43.71;99978.19;5110490;28;20205;-62
2022/11/10 09:59:33;;;;;;;7.68;4.85;;;;;;;23.91;43.39;99982.75;5111341;28;20697;-59
2022/11/10 10:02:04;;;;;;;8.75;4.63;;;;;;;24.22;42.54;99979.22;5111540;28;20204;-63
2022/11/10 10:04:44;;;;;;;9.45;4.60;;;;;;;24.07;42.14;99979.19;5111408;28;20233;-63
2022/11/10 10:07:15;;;;;;;6.70;4.53;;;;;;;24.26;42.37;99977.03;5111428;28;20185;-59
2022/11/10 10:09:50;;;;;;;7.43;4.45;;;;;;;24.23;41.52;99980.00;5111661;28;20618;-59
2022/11/10 10:12:33;;;;;;;10.32;5.03;;;;;;;23.27;43.09;99975.16;5111283;28;20262;-59
2022/11/10 10:15:14;;;;;;;6.88;4.68;;;;;;;23.09;43.00;99977.16;5111207;28;20214;-60
2022/11/10 10:17:53;;;;;;;7.38;4.13;;;;;;;22.19;45.21;99971.34;5111309;28;20197;-63
2022/11/10 10:20:30;;;;;;;9.13;4.87;;;;;;;21.70;46.09;99970.34;5111447;28;20221;-63
2022/11/10 10:23:08;;;;;;;6.00;4.00;;;;;;;21.88;46.73;99972.00;5111127;28;20254;-63
2022/11/10 10:25:38;;;;;;;8.07;4.97;;;;;;;21.54;47.98;99974.72;5110993;28;20814;-60
2022/11/10 10:28:12;;;;;;;10.30;5.00;;;;;;;22.18;47.70;99973.16;5110963;28;20197;-63
2022/11/10 10:30:41;;;;;;;10.40;4.97;;;;;;;21.81;47.45;99971.81;5111063;28;20591;-59
2022/11/10 10:33:18;;;;;;;7.30;3.97;;;;;;;21.64;48.06;99975.38;5110728;28;20725;-59
2022/11/10 10:35:47;;;;;;;8.90;4.80;;;;;;;21.97;47.75;99976.22;5110875;28;20247;-63
2022/11/10 10:38:21;;;;;;;9.33;4.77;;;;;;;22.22;47.34;99974.44;5110739;27;20230;-59
2022/11/10 10:40:50;;;;;;;11.13;4.70;;;;;;;22.28;46.76;99975.56;5110707;28;20715;-59
2022/11/10 10:43:17;;;;;;;8.80;4.60;;;;;;;22.24;46.70;99972.50;5110622;28;20636;-63
2022/11/10 10:45:44;;;;;;;9.50;4.77;;;;;;;22.31;46.62;99973.47;5110952;28;20463;-60
2022/11/10 10:48:27;;;;;;;10.53;4.63;;;;;;;22.26;46.18;99980.97;5110928;28;20196;-60
2022/11/10 10:50:54;;;;;;;7.40;4.60;;;;;;;21.90;47.63;99976.06;5111133;28;20637;-63
2022/11/10 10:53:22;;;;;;;6.83;4.33;;;;;;;22.24;46.92;99972.50;5110455;28;20232;-63
2022/11/10 10:55:58;;;;;;;9.23;4.53;;;;;;;22.51;46.56;99973.09;5110312;28;20236;-60
2022/11/10 10:58:27;;;;;;;8.43;4.90;;;;;;;22.00;47.20;99975.09;5110498;28;20197;-59
2022/11/10 11:00:59;;;;;;;10.77;5.73;;;;;;;21.45;46.87;99959.09;5110651;28;20221;-59
2022/11/10 11:03:30;;;;;;;8.80;4.83;;;;;;;21.29;48.62;99972.00;5110401;28;20203;-59
2022/11/10 11:06:03;;;;;;;10.83;5.27;;;;;;;21.75;47.77;99962.03;5110468;28;20734;-63
2022/11/10 11:08:30;;;;;;;10.47;5.13;;;;;;;21.96;47.49;99963.34;5110050;28;20212;-59
2022/11/10 11:11:06;;;;;;;8.30;4.93;;;;;;;22.11;47.18;99962.56;5110284;28;20217;-60
2022/11/10 11:13:33;;;;;;;8.80;4.87;;;;;;;21.83;46.87;99963.84;5109952;28;20240;-63
2022/11/10 11:16:01;;;;;;;8.17;4.73;;;;;;;21.97;46.80;99954.59;5110753;28;20229;-59
2022/11/10 11:18:32;;;;;;;7.20;4.80;;;;;;;22.01;46.82;99961.91;5109617;28;20570;-60
2022/11/10 11:21:05;;;;;;;9.80;5.10;;;;;;;22.01;46.71;99955.88;5110135;28;20228;-63
2022/11/10 11:23:48;;;;;;;8.90;4.90;;;;;;;21.92;46.36;99953.28;5110281;28;20197;-60
2022/11/10 11:26:22;;;;;;;7.63;4.03;;;;;;;21.22;47.83;99955.41;5110485;28;20204;-59
2022/11/10 11:29:00;;;;;;;7.37;4.33;;;;;;;21.43;48.07;99953.22;5109938;28;20201;-59
2022/11/10 11:31:42;;;;;;;10.27;5.20;;;;;;;21.83;48.11;99950.84;5110251;28;20201;-59
2022/11/10 11:34:18;;;;;;;6.87;4.73;;;;;;;21.83;46.60;99954.25;5109934;28;20220;-59
2022/11/10 11:36:52;;;;;;;8.33;4.63;;;;;;;21.97;46.79;99954.59;5110196;28;20282;-63
2022/11/10 11:39:32;;;;;;;7.37;4.30;;;;;;;22.01;46.55;99950.66;5109926;28;20692;-59
2022/11/10 11:42:10;;;;;;;8.87;4.20;;;;;;;21.90;46.93;99950.03;5110052;28;20201;-63
2022/11/10 11:44:56;;;;;;;8.80;5.07;;;;;;;22.06;46.03;99953.59;5110123;28;20220;-60
2022/11/10 11:47:37;;;;;;;9.38;4.53;;;;;;;21.74;46.91;99950.03;5110415;28;20693;-60
2022/11/10 11:50:28;;;;;;;6.00;4.27;;;;;;;21.66;47.96;99952.59;5109923;28;20611;-63
2022/11/10 11:53:05;;;;;;;6.93;4.10;;;;;;;21.18;47.54;99954.13;5109834;28;20248;-59